Time;durP1;ratioP1;P1;durP2;ratioP2;P2;SDS_P1;SDS_P2;PMS_P1;PMS_P2;Temp;Humidity;BMP_temperature;BMP_pressure;BME280_temperature;BME280_humidity;BME280_pressure;Samples;Min_cycle;Max_cycle;Signal;HPM_P1;HPM_P2
2022/12/17 13:08:04;;;;;;;37.17;22.20;;;1.60;92.00;;;;;;5027266;28;20029;-50
2022/12/17 13:10:31;;;;;;;35.05;22.27;;;1.50;93.80;;;;;;5030243;28;20060;-52
2022/12/17 13:13:09;;;;;;;35.47;23.02;;;1.50;95.40;;;;;;5030015;28;20045;-51
2022/12/17 13:15:40;;;;;;;36.60;23.25;;;1.50;95.30;;;;;;5030080;28;20659;-52
2022/12/17 13:18:32;;;;;;;38.28;22.55;;;1.50;96.80;;;;;;5030587;28;20021;-51
2022/12/17 13:21:18;;;;;;;38.05;23.08;;;1.50;98.00;;;;;;5030046;28;20476;-51
2022/12/17 13:23:43;;;;;;;36.40;21.40;;;1.50;98.10;;;;;;5019020;28;20037;-54
2022/12/17 13:26:22;;;;;;;34.15;21.83;;;1.40;98.40;;;;;;5030015;28;20286;-55
2022/12/17 13:29:01;;;;;;;34.50;20.15;;;1.40;99.70;;;;;;5029774;28;20017;-51
2022/12/17 13:31:59;;;;;;;37.45;23.05;;;1.20;99.50;;;;;;5029718;28;20392;-49
2022/12/17 13:34:43;;;;;;;34.13;20.38;;;1.20;99.90;;;;;;5006111;28;20469;-52
2022/12/17 13:37:29;;;;;;;40.90;22.10;;;1.10;99.90;;;;;;5029729;28;20046;-53
2022/12/17 13:40:08;;;;;;;34.92;22.20;;;0.90;99.90;;;;;;4998642;28;20060;-54
2022/12/17 13:42:35;;;;;;;43.75;23.65;;;0.80;99.90;;;;;;5029775;28;20104;-50
2022/12/17 13:45:02;;;;;;;33.97;21.80;;;0.80;99.90;;;;;;5028383;28;20297;-54
2022/12/17 13:47:30;;;;;;;38.63;23.88;;;0.80;99.90;;;;;;5029492;28;20025;-53
2022/12/17 13:49:58;;;;;;;37.83;23.88;;;0.80;99.90;;;;;;5029642;28;20071;-51
2022/12/17 13:52:26;;;;;;;36.63;24.15;;;0.80;99.90;;;;;;5029614;28;20104;-51
2022/12/17 13:54:52;;;;;;;40.42;25.10;;;0.70;99.90;;;;;;5029315;28;20324;-52
2022/12/17 13:57:20;;;;;;;37.17;23.33;;;0.70;99.90;;;;;;5029419;28;20026;-51
2022/12/17 13:59:51;;;;;;;37.03;23.63;;;0.80;99.90;;;;;;5029392;28;20022;-49
2022/12/17 14:02:31;;;;;;;45.28;25.25;;;0.80;99.90;;;;;;5029604;28;20032;-50
2022/12/17 14:04:59;;;;;;;37.67;24.35;;;0.60;99.90;;;;;;5029537;28;20078;-54
2022/12/17 14:07:26;;;;;;;37.35;24.35;;;0.70;99.90;;;;;;5029065;28;20030;-55
2022/12/17 14:09:53;;;;;;;44.35;26.42;;;0.70;99.90;;;;;;5026214;28;20574;-54
2022/12/17 14:12:22;;;;;;;58.25;35.50;;;0.60;99.90;;;;;;5017728;28;20050;-53
2022/12/17 14:15:03;;;;;;;381.15;155.88;;;0.50;99.90;;;;;;5017649;28;20025;-53
2022/12/17 14:17:37;;;;;;;72.45;39.83;;;0.40;99.90;;;;;;5017591;28;20340;-52
2022/12/17 14:20:10;;;;;;;60.55;38.97;;;0.30;99.90;;;;;;5017349;28;20037;-51
2022/12/17 14:22:41;;;;;;;61.13;36.17;;;0.30;99.90;;;;;;5017591;28;20117;-51
2022/12/17 14:25:16;;;;;;;51.67;32.08;;;0.20;99.90;;;;;;5017286;28;20650;-51
2022/12/17 14:28:12;;;;;;;51.13;29.95;;;0.10;99.90;;;;;;5017806;28;20033;-51
2022/12/17 14:30:40;;;;;;;55.75;36.35;;;0.20;99.90;;;;;;5009293;28;20042;-53
2022/12/17 14:33:33;;;;;;;67.60;42.95;;;0.10;99.90;;;;;;5017560;28;20061;-53
2022/12/17 14:36:03;;;;;;;56.47;34.45;;;0.00;99.90;;;;;;5017722;28;20137;-50
2022/12/17 14:38:29;;;;;;;48.90;31.40;;;0.00;99.90;;;;;;5017262;28;20045;-55
2022/12/17 14:44:00;;;;;;;52.58;32.45;;;-0.20;99.90;;;;;;5018039;28;20048;-52
2022/12/17 14:46:27;;;;;;;47.08;30.17;;;-0.40;99.90;;;;;;5017762;28;20104;-52
2022/12/17 14:49:01;;;;;;;54.47;34.08;;;-0.40;99.90;;;;;;5016992;28;20021;-51
2022/12/17 14:51:32;;;;;;;51.75;33.13;;;-0.40;99.90;;;;;;5017717;28;20159;-51
2022/12/17 14:54:17;;;;;;;55.75;33.22;;;-0.60;99.90;;;;;;5016121;28;20122;-54
2022/12/17 14:56:45;;;;;;;55.22;32.72;;;-0.70;99.90;;;;;;5017800;28;20029;-53
2022/12/17 14:59:29;;;;;;;50.80;32.83;;;-0.80;99.90;;;;;;5016923;28;20029;-53
2022/12/17 15:01:55;;;;;;;57.22;33.28;;;-0.70;99.90;;;;;;5025524;28;20053;-54
2022/12/17 15:04:21;;;;;;;54.10;34.25;;;-0.80;99.90;;;;;;5029078;28;20068;-54
2022/12/17 15:06:48;;;;;;;57.80;35.03;;;-0.80;99.90;;;;;;5029402;28;20037;-51
2022/12/17 15:09:14;;;;;;;54.13;35.17;;;-0.90;99.90;;;;;;5029135;28;20121;-50
2022/12/17 15:11:40;;;;;;;56.67;35.38;;;-1.00;99.90;;;;;;5028294;28;20113;-53
2022/12/17 15:14:05;;;;;;;57.70;34.65;;;-1.00;99.90;;;;;;5029533;28;20036;-51
2022/12/17 15:16:31;;;;;;;64.50;36.17;;;-1.00;99.90;;;;;;5029236;28;20480;-52
2022/12/17 15:18:57;;;;;;;54.47;35.00;;;-1.00;99.90;;;;;;5029589;28;20071;-56
2022/12/17 15:21:24;;;;;;;59.45;37.55;;;-1.00;99.90;;;;;;5029199;28;20210;-52
2022/12/17 15:23:50;;;;;;;108.47;66.68;;;-1.00;99.90;;;;;;5033940;27;20053;-51
2022/12/17 15:26:16;;;;;;;58.75;36.45;;;-1.00;99.90;;;;;;5042589;27;20039;-52
2022/12/17 15:28:43;;;;;;;61.28;36.80;;;-1.10;99.90;;;;;;5047551;28;20033;-51
2022/12/17 15:31:11;;;;;;;53.67;33.92;;;-1.00;99.90;;;;;;5044636;28;21664;-53
2022/12/17 15:33:36;;;;;;;61.95;36.38;;;-1.00;99.90;;;;;;5045938;28;20044;-51
2022/12/17 15:36:03;;;;;;;62.97;34.28;;;-1.10;99.90;;;;;;5047217;28;20021;-53
2022/12/17 15:38:28;;;;;;;60.45;35.53;;;-1.20;99.90;;;;;;5047553;28;20029;-53
2022/12/17 15:40:54;;;;;;;57.92;35.60;;;-1.20;99.90;;;;;;5048264;28;20017;-55
2022/12/17 15:43:20;;;;;;;67.20;36.30;;;-1.30;99.90;;;;;;5048703;28;20094;-53
2022/12/17 15:45:50;;;;;;;56.88;34.00;;;-1.30;99.90;;;;;;5048695;28;20021;-56
2022/12/17 15:48:22;;;;;;;67.88;38.60;;;-1.40;99.90;;;;;;5048718;28;20409;-54
2022/12/17 15:50:48;;;;;;;62.08;34.92;;;-1.60;99.90;;;;;;5018398;28;20018;-52
2022/12/17 15:53:14;;;;;;;63.70;37.92;;;-1.70;99.90;;;;;;5018045;28;20064;-55
2022/12/17 15:55:40;;;;;;;69.20;39.55;;;-1.80;99.90;;;;;;5016868;28;22671;-51
2022/12/17 15:58:07;;;;;;;68.43;39.50;;;-2.10;99.90;;;;;;5017718;28;20038;-50
2022/12/17 16:00:33;;;;;;;72.45;41.22;;;-2.30;99.90;;;;;;5019436;28;20026;-56
2022/12/17 16:02:59;;;;;;;69.65;39.80;;;-2.40;99.90;;;;;;5027713;27;20147;-53
2022/12/17 16:05:24;;;;;;;66.90;38.35;;;-2.50;99.90;;;;;;5019012;28;20112;-55
2022/12/17 16:07:51;;;;;;;63.17;38.38;;;-2.70;99.90;;;;;;5019612;27;20453;-53
2022/12/17 16:10:17;;;;;;;69.00;38.00;;;-2.90;99.90;;;;;;5017789;28;20033;-52
2022/12/17 16:12:43;;;;;;;74.90;39.05;;;-3.20;99.90;;;;;;5018529;27;20045;-53
2022/12/17 16:15:14;;;;;;;65.47;36.08;;;-3.50;99.90;;;;;;5017451;28;20041;-50
2022/12/17 16:17:39;;;;;;;58.72;35.65;;;-3.60;99.90;;;;;;5018859;27;20033;-53
2022/12/17 16:20:06;;;;;;;58.13;34.67;;;-3.70;99.90;;;;;;5018448;28;20034;-51
2022/12/17 16:22:32;;;;;;;55.08;34.15;;;-3.90;99.90;;;;;;5019396;27;20034;-53
2022/12/17 16:24:57;;;;;;;57.00;35.03;;;-4.10;99.90;;;;;;5019000;28;20036;-53
2022/12/17 16:27:23;;;;;;;64.03;35.08;;;-4.30;99.90;;;;;;5018094;27;20048;-53
2022/12/17 16:29:49;;;;;;;78.55;37.53;;;-4.70;99.90;;;;;;5015575;28;20074;-53
2022/12/17 16:32:15;;;;;;;59.80;34.78;;;-4.90;99.90;;;;;;5017236;28;20034;-55
2022/12/17 16:34:41;;;;;;;56.22;34.17;;;-5.00;99.90;;;;;;5023508;27;20057;-52
2022/12/17 16:37:07;;;;;;;58.45;34.03;;;-5.10;99.90;;;;;;5017294;28;22531;-51
2022/12/17 16:39:32;;;;;;;65.60;34.33;;;-5.20;99.90;;;;;;5019199;27;20049;-51
2022/12/17 16:41:58;;;;;;;68.90;38.28;;;-5.50;99.90;;;;;;5017415;28;20040;-53
2022/12/17 16:44:24;;;;;;;73.13;37.25;;;-5.60;99.90;;;;;;5021383;27;20029;-52
2022/12/17 16:46:51;;;;;;;62.17;34.40;;;-5.90;99.90;;;;;;5021513;28;20026;-53
2022/12/17 16:49:21;;;;;;;61.03;36.28;;;-6.20;99.90;;;;;;5021593;27;20361;-51
2022/12/17 16:51:55;;;;;;;75.57;40.58;;;-6.30;99.90;;;;;;5032943;28;20464;-52
2022/12/17 16:54:26;;;;;;;70.00;38.53;;;-6.40;99.90;;;;;;5026871;27;20038;-53
2022/12/17 16:56:53;;;;;;;70.95;39.45;;;-6.50;99.90;;;;;;5020741;28;20041;-52
2022/12/17 16:59:19;;;;;;;69.15;40.65;;;-6.50;99.90;;;;;;5022038;27;20466;-50
2022/12/17 17:01:47;;;;;;;77.07;41.88;;;-6.60;99.90;;;;;;5020016;28;20032;-54
2022/12/17 17:04:15;;;;;;;72.25;39.30;;;-6.70;99.90;;;;;;5020693;28;20038;-54
2022/12/17 17:06:43;;;;;;;67.50;36.72;;;-6.80;99.90;;;;;;5020994;28;20069;-52
2022/12/17 17:09:09;;;;;;;79.25;37.47;;;-6.90;99.90;;;;;;5021352;28;20480;-52
2022/12/17 17:11:35;;;;;;;75.60;37.53;;;-7.00;99.90;;;;;;5020227;28;20041;-51
2022/12/17 17:14:01;;;;;;;78.45;40.67;;;-7.00;99.90;;;;;;5021091;28;20361;-52
2022/12/17 17:16:26;;;;;;;73.25;36.60;;;-7.00;99.90;;;;;;5019680;28;20081;-53
2022/12/17 17:18:53;;;;;;;70.40;37.80;;;-7.10;99.90;;;;;;5021093;28;20073;-52
2022/12/17 17:21:18;;;;;;;72.00;38.10;;;-7.20;99.90;;;;;;5020975;28;20037;-53
2022/12/17 17:23:54;;;;;;;81.28;40.67;;;-7.20;99.90;;;;;;5020459;28;20036;-52
2022/12/17 17:26:20;;;;;;;116.82;44.05;;;-7.40;99.90;;;;;;5020704;28;20358;-50
2022/12/17 17:28:46;;;;;;;104.85;44.05;;;-7.50;99.90;;;;;;5023928;28;20040;-51
2022/12/17 17:31:13;;;;;;;100.03;41.88;;;-7.60;99.90;;;;;;5038801;28;20024;-51
2022/12/17 17:33:47;;;;;;;105.20;44.90;;;-7.60;99.90;;;;;;5020430;28;20041;-52
2022/12/17 17:36:22;;;;;;;101.22;45.78;;;-7.60;99.90;;;;;;5019883;28;20108;-54
2022/12/17 17:38:50;;;;;;;220.63;54.42;;;-7.60;99.90;;;;;;5019965;28;20026;-54
2022/12/17 17:41:18;;;;;;;358.30;61.92;;;-7.80;99.90;;;;;;5036773;28;20043;-50
2022/12/17 17:43:44;;;;;;;302.15;62.63;;;-7.80;99.90;;;;;;5039027;27;20113;-52
2022/12/17 17:46:15;;;;;;;395.08;66.05;;;-7.90;99.90;;;;;;5037226;28;20108;-52
2022/12/17 17:48:43;;;;;;;208.65;54.63;;;-7.90;99.90;;;;;;5020281;28;20036;-52
2022/12/17 17:51:12;;;;;;;137.63;49.80;;;-7.90;99.90;;;;;;5020396;28;20074;-51
2022/12/17 17:53:38;;;;;;;93.10;45.83;;;-8.00;99.90;;;;;;5019788;28;20026;-50
2022/12/17 17:56:06;;;;;;;151.50;49.50;;;-8.00;99.90;;;;;;5019266;28;20481;-54
2022/12/17 17:58:33;;;;;;;160.68;52.15;;;-8.00;99.90;;;;;;5020332;28;20072;-53
2022/12/17 18:00:59;;;;;;;138.23;56.08;;;-8.00;99.90;;;;;;5019303;28;20037;-51
2022/12/17 18:03:27;;;;;;;378.50;140.95;;;-8.10;99.90;;;;;;5020196;28;20665;-52
2022/12/17 18:05:53;;;;;;;491.33;92.18;;;-8.10;99.90;;;;;;5020453;28;20104;-52
2022/12/17 18:08:18;;;;;;;876.97;116.65;;;-8.10;99.90;;;;;;5019017;28;20124;-56
2022/12/17 18:10:54;;;;;;;963.03;116.55;;;-8.10;99.90;;;;;;5020179;28;20026;-50
2022/12/17 18:16:04;;;;;;;628.50;107.28;;;-8.30;99.90;;;;;;5020152;28;20529;-50
2022/12/17 18:18:30;;;;;;;519.55;85.28;;;-8.40;99.90;;;;;;5019817;28;21151;-50
2022/12/17 18:21:04;;;;;;;555.67;92.93;;;-8.40;99.90;;;;;;5019972;28;21204;-55
2022/12/17 18:23:30;;;;;;;699.78;97.55;;;-8.30;99.90;;;;;;5020047;28;20040;-52
2022/12/17 18:25:55;;;;;;;755.78;124.18;;;-8.30;99.90;;;;;;5019791;28;20033;-53
2022/12/17 18:28:21;;;;;;;364.20;73.47;;;-8.20;99.90;;;;;;5019487;28;20044;-50
2022/12/17 18:30:47;;;;;;;363.15;67.10;;;-8.10;99.90;;;;;;5018718;28;20078;-54
2022/12/17 18:33:12;;;;;;;632.70;91.78;;;-8.10;99.90;;;;;;5019410;28;20125;-52
2022/12/17 18:35:38;;;;;;;775.40;228.75;;;-8.30;99.90;;;;;;5019902;28;20101;-55
2022/12/17 18:38:03;;;;;;;637.65;104.82;;;-8.10;99.90;;;;;;5019009;28;20104;-54
2022/12/17 18:40:29;;;;;;;380.48;80.55;;;-8.10;99.90;;;;;;5019514;28;20116;-51
2022/12/17 18:45:39;;;;;;;150.35;73.78;;;-7.90;99.90;;;;;;5018937;28;20121;-51
2022/12/17 18:48:05;;;;;;;169.43;80.95;;;-7.70;99.90;;;;;;5018996;28;20124;-53
2022/12/17 18:50:30;;;;;;;124.65;63.40;;;-7.60;99.90;;;;;;5019265;28;20017;-55
2022/12/17 18:52:56;;;;;;;103.68;54.42;;;-7.40;99.90;;;;;;5019053;28;20055;-56
2022/12/17 18:55:21;;;;;;;84.32;44.35;;;-7.30;99.90;;;;;;5019332;28;20029;-55
2022/12/17 18:57:47;;;;;;;91.70;47.67;;;-7.10;99.90;;;;;;5018936;28;20041;-56
2022/12/17 19:00:13;;;;;;;96.15;49.38;;;-6.90;99.90;;;;;;5019041;28;21233;-51
2022/12/17 19:02:39;;;;;;;82.47;40.25;;;-6.70;99.90;;;;;;5019569;28;20025;-51
2022/12/17 19:05:05;;;;;;;84.82;44.33;;;-6.60;99.90;;;;;;5018957;28;20044;-55
2022/12/17 19:07:30;;;;;;;93.22;52.22;;;-6.50;99.90;;;;;;5018555;28;20047;-52
2022/12/17 19:09:56;;;;;;;92.50;51.40;;;-6.50;99.90;;;;;;5018736;28;20041;-53
2022/12/17 19:12:22;;;;;;;134.73;66.85;;;-6.40;99.90;;;;;;5017601;28;20053;-54
2022/12/17 19:14:47;;;;;;;190.57;89.07;;;-6.30;99.90;;;;;;5018218;28;20342;-53
2022/12/17 19:17:13;;;;;;;143.80;66.47;;;-6.20;99.90;;;;;;5018838;28;20458;-52
2022/12/17 19:19:38;;;;;;;165.07;77.10;;;-6.10;99.90;;;;;;5017697;28;20034;-52
2022/12/17 19:22:04;;;;;;;187.18;82.20;;;-5.90;99.90;;;;;;5018411;28;20634;-56
2022/12/17 19:24:30;;;;;;;118.22;56.80;;;-5.80;99.90;;;;;;5018413;28;20058;-54
2022/12/17 19:26:56;;;;;;;127.30;64.57;;;-5.70;99.90;;;;;;5018376;28;20045;-55
2022/12/17 19:29:22;;;;;;;195.50;84.35;;;-5.60;99.90;;;;;;5018229;28;20085;-50
2022/12/17 19:31:48;;;;;;;169.00;80.18;;;-5.50;99.90;;;;;;5018623;28;20086;-53
2022/12/17 19:34:16;;;;;;;164.00;76.35;;;-5.50;99.90;;;;;;5018892;28;20026;-50
2022/12/17 19:36:43;;;;;;;114.82;57.08;;;-5.50;99.90;;;;;;5018449;28;20559;-54
2022/12/17 19:39:15;;;;;;;103.90;54.15;;;-5.40;99.90;;;;;;5018699;28;20030;-55
2022/12/17 19:41:41;;;;;;;162.13;68.93;;;-5.30;99.90;;;;;;5036516;28;20471;-51
2022/12/17 19:44:11;;;;;;;102.60;51.65;;;-5.30;99.90;;;;;;5038577;28;20049;-52
2022/12/17 19:46:37;;;;;;;193.25;80.38;;;-5.20;99.90;;;;;;5038324;27;20028;-51
2022/12/17 19:49:03;;;;;;;121.78;61.22;;;-5.20;99.90;;;;;;5024771;28;20166;-50
2022/12/17 19:51:30;;;;;;;133.13;61.05;;;-5.20;99.90;;;;;;5017708;28;20369;-54
2022/12/17 19:53:56;;;;;;;142.10;68.72;;;-5.10;99.90;;;;;;5017606;28;20037;-52
2022/12/17 19:56:25;;;;;;;209.38;86.95;;;-5.00;99.90;;;;;;5018331;28;20086;-51
2022/12/17 19:58:53;;;;;;;121.85;59.83;;;-4.90;99.90;;;;;;5018838;28;20033;-53
2022/12/17 20:01:26;;;;;;;83.40;41.53;;;-4.80;99.90;;;;;;5018261;28;20025;-50
2022/12/17 20:03:53;;;;;;;87.13;43.55;;;-4.90;99.90;;;;;;5037399;28;20421;-52
2022/12/17 20:06:21;;;;;;;85.22;41.75;;;-4.80;99.90;;;;;;5037945;28;20028;-52
2022/12/17 20:08:46;;;;;;;67.63;37.60;;;-4.90;99.90;;;;;;5038251;28;20044;-50
2022/12/17 20:11:32;;;;;;;75.50;39.95;;;-4.90;99.90;;;;;;5027631;27;20030;-53
2022/12/17 20:14:25;;;;;;;75.10;37.25;;;-4.80;99.90;;;;;;5037426;27;20025;-53
2022/12/17 20:16:55;;;;;;;73.57;38.50;;;-4.70;99.90;;;;;;5038326;28;20032;-51
2022/12/17 20:19:23;;;;;;;72.28;40.38;;;-4.70;99.90;;;;;;5037246;28;20048;-56
2022/12/17 20:21:49;;;;;;;78.35;40.30;;;-4.60;99.90;;;;;;5035009;27;20056;-52
2022/12/17 20:24:16;;;;;;;102.47;50.42;;;-4.60;99.90;;;;;;5023029;27;20072;-50
2022/12/17 20:26:42;;;;;;;128.70;59.95;;;-4.50;99.90;;;;;;5036918;27;20030;-52
2022/12/17 20:29:08;;;;;;;145.27;65.13;;;-4.40;99.90;;;;;;5027756;27;20022;-52
2022/12/17 20:31:34;;;;;;;134.15;65.75;;;-4.40;99.90;;;;;;5041566;27;20349;-52
2022/12/17 20:34:00;;;;;;;111.32;54.90;;;-4.40;99.90;;;;;;5022282;27;20017;-55
2022/12/17 20:36:26;;;;;;;108.05;47.33;;;-4.30;99.90;;;;;;5037068;28;20029;-50
2022/12/17 20:38:52;;;;;;;90.93;45.53;;;-4.20;99.90;;;;;;5037785;28;20478;-50
2022/12/17 20:41:20;;;;;;;87.80;44.22;;;-4.20;99.90;;;;;;5035443;28;20041;-54
2022/12/17 20:43:46;;;;;;;92.38;45.58;;;-4.10;99.90;;;;;;5026359;28;20476;-56
2022/12/17 20:46:12;;;;;;;91.40;48.03;;;-3.90;99.90;;;;;;5016898;28;20361;-52
2022/12/17 20:48:41;;;;;;;77.38;42.45;;;-3.80;99.90;;;;;;5017357;28;20036;-52
2022/12/17 20:51:15;;;;;;;93.97;45.53;;;-3.70;99.90;;;;;;5016884;28;20038;-58
2022/12/17 20:53:42;;;;;;;86.50;42.20;;;-3.60;99.90;;;;;;5017155;28;20101;-50
2022/12/17 20:56:12;;;;;;;84.93;44.65;;;-3.70;99.90;;;;;;5017103;28;20029;-53
2022/12/17 20:58:38;;;;;;;95.38;45.65;;;-3.60;99.90;;;;;;5016761;28;20038;-52
2022/12/17 21:01:10;;;;;;;85.68;44.08;;;-3.60;99.90;;;;;;5018662;28;20026;-52
2022/12/17 21:03:36;;;;;;;84.72;43.92;;;-3.50;99.90;;;;;;5017118;28;20033;-54
2022/12/17 21:06:11;;;;;;;99.70;46.33;;;-3.50;99.90;;;;;;5016851;28;20056;-54
2022/12/17 21:08:38;;;;;;;97.72;43.78;;;-3.50;99.90;;;;;;5018016;28;20037;-55
2022/12/17 21:11:04;;;;;;;92.75;43.60;;;-3.50;99.90;;;;;;5016961;28;20025;-54
2022/12/17 21:13:29;;;;;;;95.43;47.20;;;-3.50;99.90;;;;;;5016483;28;20070;-53
2022/12/17 21:16:00;;;;;;;90.95;47.53;;;-3.50;99.90;;;;;;5017049;28;20052;-52
2022/12/17 21:18:28;;;;;;;101.15;51.45;;;-3.40;99.90;;;;;;5017337;28;20045;-51
2022/12/17 21:20:58;;;;;;;101.93;52.45;;;-3.40;99.90;;;;;;5016524;28;20034;-53
2022/12/17 21:23:24;;;;;;;91.60;49.50;;;-3.30;99.90;;;;;;5016770;28;20044;-51
2022/12/17 21:26:12;;;;;;;103.25;49.28;;;-3.30;99.90;;;;;;5016684;28;20400;-50
2022/12/17 21:28:40;;;;;;;109.68;52.45;;;-3.30;99.90;;;;;;5017109;28;20498;-53
2022/12/17 21:31:14;;;;;;;95.88;52.63;;;-3.30;99.90;;;;;;5019626;28;20115;-55
2022/12/17 21:33:40;;;;;;;99.43;52.10;;;-3.40;99.90;;;;;;5020537;28;20049;-56
2022/12/17 21:36:06;;;;;;;87.30;43.30;;;-3.30;99.90;;;;;;5019616;28;20428;-52
2022/12/17 21:38:32;;;;;;;96.30;46.58;;;-3.30;99.90;;;;;;5021354;28;20559;-55
2022/12/17 21:41:25;;;;;;;88.85;41.55;;;-3.30;99.90;;;;;;5030941;28;20029;-55
2022/12/17 21:43:56;;;;;;;82.32;43.20;;;-3.30;99.90;;;;;;5028936;28;20033;-55
2022/12/17 21:46:23;;;;;;;89.32;43.50;;;-3.30;99.90;;;;;;5030078;28;21930;-53
2022/12/17 21:48:48;;;;;;;88.97;46.70;;;-3.30;99.90;;;;;;5031068;28;20044;-50
2022/12/17 21:51:14;;;;;;;103.30;48.13;;;-3.30;99.90;;;;;;5030542;28;20635;-56
2022/12/17 21:53:42;;;;;;;91.35;45.45;;;-3.30;99.90;;;;;;5030851;28;20026;-54
2022/12/17 21:56:14;;;;;;;91.47;47.30;;;-3.30;99.90;;;;;;5030561;28;20030;-53
2022/12/17 21:58:41;;;;;;;90.93;44.65;;;-3.30;99.90;;;;;;5030973;28;20109;-52
2022/12/17 22:01:18;;;;;;;98.15;44.05;;;-3.20;99.90;;;;;;5030441;28;20021;-55
2022/12/17 22:03:45;;;;;;;84.55;40.88;;;-3.30;99.90;;;;;;5030750;28;20029;-56
2022/12/17 22:06:19;;;;;;;100.47;49.42;;;-3.30;99.90;;;;;;5030470;28;20029;-53
2022/12/17 22:08:45;;;;;;;113.75;52.05;;;-3.30;99.90;;;;;;5030722;28;20069;-52
2022/12/17 22:11:13;;;;;;;98.65;47.85;;;-3.30;99.90;;;;;;5030157;28;20396;-55
2022/12/17 22:16:26;;;;;;;85.53;40.55;;;-3.30;99.90;;;;;;5030577;28;20028;-53
2022/12/17 22:18:52;;;;;;;80.10;39.67;;;-3.30;99.90;;;;;;5029838;28;20074;-52
2022/12/17 22:21:18;;;;;;;80.47;36.53;;;-3.40;99.90;;;;;;5029778;28;20022;-55
2022/12/17 22:23:48;;;;;;;73.18;38.60;;;-3.40;99.90;;;;;;5030053;28;20083;-55
2022/12/17 22:26:15;;;;;;;76.70;39.72;;;-3.50;99.90;;;;;;5030176;28;20685;-51
2022/12/17 22:28:42;;;;;;;80.88;40.45;;;-3.50;99.90;;;;;;5030357;28;20443;-51
2022/12/17 22:33:56;;;;;;;86.72;43.55;;;-3.40;99.90;;;;;;5030347;28;20044;-50
2022/12/17 22:36:22;;;;;;;96.85;46.15;;;-3.50;99.90;;;;;;5030148;28;20027;-54
2022/12/17 22:38:48;;;;;;;86.53;43.60;;;-3.50;99.90;;;;;;5029989;28;20387;-51
2022/12/17 22:43:28;;;;;;;87.90;45.28;;;-3.50;99.90;;;;;;5029438;28;20022;-51
2022/12/17 22:44:01;;;;;;;83.43;40.03;;;-3.50;99.90;;;;;;5029816;28;20471;-52
2022/12/17 22:46:28;;;;;;;85.90;42.47;;;-3.50;99.90;;;;;;5029943;28;20069;-56
2022/12/17 22:48:55;;;;;;;84.07;45.33;;;-3.40;99.90;;;;;;5029928;28;20025;-53
2022/12/17 22:51:20;;;;;;;93.88;45.72;;;-3.40;99.90;;;;;;5029850;28;20140;-54
2022/12/17 22:53:46;;;;;;;85.63;45.30;;;-3.40;99.90;;;;;;5029895;28;20414;-52
2022/12/17 22:56:18;;;;;;;96.28;45.10;;;-3.40;99.90;;;;;;5029776;28;20021;-54
2022/12/17 22:58:44;;;;;;;107.82;44.00;;;-3.40;99.90;;;;;;5029830;28;20026;-54
2022/12/17 23:01:10;;;;;;;92.82;43.85;;;-3.40;99.90;;;;;;5029701;28;20082;-54
2022/12/17 23:03:36;;;;;;;91.72;41.92;;;-3.50;99.90;;;;;;5029659;28;20029;-54
2022/12/17 23:06:10;;;;;;;92.30;42.83;;;-3.50;99.90;;;;;;5029570;28;20078;-53
2022/12/17 23:08:36;;;;;;;77.82;41.15;;;-3.40;99.90;;;;;;5029731;28;20474;-53
2022/12/17 23:11:07;;;;;;;82.60;43.53;;;-3.40;99.90;;;;;;5029443;28;20017;-54
2022/12/17 23:13:33;;;;;;;79.20;41.28;;;-3.40;99.90;;;;;;5029739;28;20038;-54
2022/12/17 23:15:58;;;;;;;93.50;45.10;;;-3.40;99.90;;;;;;5029498;28;20071;-53
2022/12/17 23:18:24;;;;;;;87.15;46.13;;;-3.40;99.90;;;;;;5029574;28;20072;-50
2022/12/17 23:20:49;;;;;;;81.25;40.67;;;-3.40;99.90;;;;;;5029572;28;20029;-55
2022/12/17 23:23:15;;;;;;;85.50;42.47;;;-3.50;99.90;;;;;;5028129;28;20037;-52
2022/12/17 23:25:41;;;;;;;77.88;40.22;;;-3.40;99.90;;;;;;5029600;28;20022;-52
2022/12/17 23:28:06;;;;;;;88.80;41.70;;;-3.50;99.90;;;;;;5029186;28;20069;-51
2022/12/17 23:30:32;;;;;;;91.05;44.05;;;-3.50;99.90;;;;;;5029483;28;20053;-52
2022/12/17 23:32:58;;;;;;;95.20;45.00;;;-3.50;99.90;;;;;;5029220;28;20026;-51
2022/12/17 23:35:23;;;;;;;96.60;46.92;;;-3.50;99.90;;;;;;5029279;28;20029;-54
2022/12/17 23:37:49;;;;;;;81.40;41.67;;;-3.40;99.90;;;;;;5029274;28;20072;-50
2022/12/17 23:40:15;;;;;;;87.45;42.67;;;-3.50;99.90;;;;;;5029026;28;20064;-55
2022/12/17 23:42:40;;;;;;;92.00;43.10;;;-3.50;99.90;;;;;;5029258;28;20018;-53
2022/12/17 23:45:07;;;;;;;95.25;43.80;;;-3.50;99.90;;;;;;5028933;28;20559;-53
2022/12/17 23:47:33;;;;;;;84.03;42.47;;;-3.50;99.90;;;;;;5029157;28;20022;-54
2022/12/17 23:49:59;;;;;;;89.65;41.72;;;-3.50;99.90;;;;;;5028863;28;20492;-56
2022/12/17 23:52:24;;;;;;;82.07;43.20;;;-3.50;99.90;;;;;;5028071;28;20529;-54
2022/12/17 23:54:50;;;;;;;91.97;44.70;;;-3.50;99.90;;;;;;5028869;28;20053;-55
2022/12/17 23:57:16;;;;;;;93.53;46.97;;;-3.50;99.90;;;;;;5028950;28;20033;-52
2022/12/17 23:59:41;;;;;;;91.75;45.60;;;-3.50;99.90;;;;;;5028886;28;20037;-51
